createdAt,value
2019-05-30T00:01:51.266Z,63.20
2019-05-30T00:04:20.008Z,62.60
2019-05-30T00:06:48.741Z,62.40
2019-05-30T00:09:19.200Z,62.80
2019-05-30T00:11:47.918Z,63.40
2019-05-30T00:14:16.601Z,62.70
2019-05-30T00:16:45.299Z,62.60
2019-05-30T00:19:14.010Z,62.80
2019-05-30T00:21:42.686Z,63.00
2019-05-30T00:24:11.381Z,63.10
2019-05-30T00:26:40.117Z,63.50
2019-05-30T00:29:08.778Z,63.10
2019-05-30T00:31:38.719Z,62.90
2019-05-30T00:34:07.539Z,63.10
2019-05-30T00:36:36.276Z,62.80
2019-05-30T00:39:07.052Z,62.80
2019-05-30T00:41:35.866Z,63.10
2019-05-30T00:44:04.722Z,63.10
2019-05-30T00:46:33.369Z,63.10
2019-05-30T00:49:02.414Z,62.90
2019-05-30T00:51:31.469Z,63.10
2019-05-30T00:54:00.716Z,63.10
2019-05-30T00:56:29.973Z,63.20
2019-05-30T00:58:58.789Z,63.50
2019-05-30T01:01:27.449Z,64.20
2019-05-30T01:03:56.755Z,65.80
2019-05-30T01:06:25.484Z,67.20
2019-05-30T01:08:54.229Z,68.80
2019-05-30T01:11:23.013Z,69.30
2019-05-30T01:13:51.753Z,69.60
2019-05-30T01:16:20.489Z,70.20
2019-05-30T01:18:49.300Z,70.40
2019-05-30T01:21:18.105Z,71.80
2019-05-30T01:23:46.743Z,73.10
2019-05-30T01:26:15.465Z,73.70
2019-05-30T01:28:44.213Z,75.00
2019-05-30T01:31:12.950Z,76.20
2019-05-30T01:33:41.666Z,76.90
2019-05-30T01:36:10.473Z,77.30
2019-05-30T01:38:39.197Z,79.60
2019-05-30T01:41:08.117Z,79.80
2019-05-30T01:43:37.104Z,81.40
2019-05-30T01:46:06.235Z,81.30
2019-05-30T01:48:35.023Z,80.90
2019-05-30T01:51:04.598Z,81.40
2019-05-30T01:53:33.524Z,80.10
2019-05-30T01:56:02.742Z,80.40
2019-05-30T01:58:31.594Z,80.40
2019-05-30T02:01:17.145Z,80.00
2019-05-30T02:03:30.661Z,79.60
2019-05-30T02:05:59.368Z,79.80
2019-05-30T02:08:28.115Z,81.40
2019-05-30T02:10:56.836Z,82.50
2019-05-30T02:13:25.568Z,85.30
2019-05-30T02:15:54.287Z,85.40
2019-05-30T02:18:23.035Z,85.90
2019-05-30T02:20:51.749Z,86.20
2019-05-30T02:23:20.402Z,86.70
2019-05-30T02:25:49.146Z,87.10
2019-05-30T02:28:17.865Z,86.60
2019-05-30T02:30:46.577Z,88.20
2019-05-30T02:33:15.314Z,88.20
2019-05-30T02:35:44.024Z,87.60
2019-05-30T02:38:12.753Z,88.40
2019-05-30T02:40:41.587Z,88.30
2019-05-30T02:43:12.192Z,88.90
2019-05-30T02:45:40.734Z,88.50
2019-05-30T02:48:11.952Z,88.90
2019-05-30T02:50:40.940Z,89.50
2019-05-30T02:53:10.964Z,89.00
2019-05-30T02:55:40.495Z,89.70
2019-05-30T02:58:10.519Z,89.70
2019-05-30T03:00:40.066Z,89.90
2019-05-30T03:03:09.809Z,89.60
2019-05-30T03:05:39.182Z,89.60
2019-05-30T03:08:10.943Z,89.10
2019-05-30T03:10:39.004Z,89.60
2019-05-30T03:13:08.406Z,90.00
2019-05-30T03:15:38.408Z,90.00
2019-05-30T03:18:09.440Z,89.90
2019-05-30T03:20:37.623Z,89.60
2019-05-30T03:23:08.348Z,89.80
2019-05-30T03:25:36.980Z,89.40
2019-05-30T03:28:07.121Z,89.40
2019-05-30T03:30:37.502Z,89.60
2019-05-30T03:33:24.340Z,89.20
2019-05-30T03:35:42.619Z,88.40
2019-05-30T03:38:10.641Z,88.70
2019-05-30T03:40:39.946Z,88.60
2019-05-30T03:43:11.073Z,88.90
2019-05-30T03:45:40.385Z,88.10
2019-05-30T03:48:13.736Z,89.90
2019-05-30T03:50:45.624Z,89.90
2019-05-30T03:53:16.289Z,89.20
2019-05-30T03:55:48.493Z,89.80
2019-05-30T03:58:20.857Z,89.80
2019-05-30T04:00:56.058Z,90.10
2019-05-30T04:03:49.004Z,89.30
2019-05-30T04:06:23.723Z,89.20
2019-05-30T04:08:55.560Z,89.10
2019-05-30T04:11:39.266Z,88.50
2019-05-30T04:14:10.556Z,89.40
2019-05-30T04:16:39.313Z,88.90
2019-05-30T04:19:08.170Z,88.40
2019-05-30T04:21:36.878Z,87.80
2019-05-30T04:24:07.315Z,88.20
2019-05-30T04:26:36.745Z,87.90
2019-05-30T04:29:25.585Z,87.30
2019-05-30T04:31:54.298Z,87.10
2019-05-30T04:34:23.047Z,86.70
2019-05-30T04:36:53.373Z,86.70
2019-05-30T04:39:22.367Z,86.70
2019-05-30T04:41:51.101Z,86.40
2019-05-30T04:44:20.370Z,87.20
2019-05-30T04:46:49.406Z,87.40
2019-05-30T04:49:19.727Z,86.60
2019-05-30T04:51:48.564Z,86.70
2019-05-30T04:54:19.021Z,86.70
2019-05-30T04:56:47.753Z,86.10
2019-05-30T04:59:17.574Z,86.40
2019-05-30T05:01:46.962Z,86.70
2019-05-30T05:04:17.529Z,85.80
2019-05-30T05:06:46.097Z,85.80
2019-05-30T05:09:37.568Z,86.00
2019-05-30T05:12:06.785Z,86.10
2019-05-30T05:14:35.565Z,85.70
2019-05-30T05:17:04.330Z,85.20
2019-05-30T05:19:33.271Z,85.20
2019-05-30T05:22:02.030Z,85.60
2019-05-30T05:24:30.751Z,84.80
2019-05-30T05:26:59.489Z,84.40
2019-05-30T05:29:28.240Z,85.20
2019-05-30T05:31:56.961Z,84.60
2019-05-30T05:34:25.736Z,85.40
2019-05-30T05:36:54.486Z,84.60
2019-05-30T05:39:24.165Z,85.50
2019-05-30T05:41:53.038Z,84.50
2019-05-30T05:44:22.449Z,84.20
2019-05-30T05:46:51.308Z,84.20
2019-05-30T05:49:20.601Z,84.20
2019-05-30T05:51:49.549Z,84.10
2019-05-30T05:54:18.849Z,84.80
2019-05-30T05:56:47.690Z,84.40
2019-05-30T05:59:17.024Z,85.10
2019-05-30T06:01:45.862Z,84.30
2019-05-30T06:04:14.597Z,84.00
2019-05-30T06:06:43.365Z,83.40
2019-05-30T06:09:12.134Z,83.00
2019-05-30T06:11:40.865Z,83.40
2019-05-30T06:14:09.578Z,83.40
2019-05-30T06:16:38.337Z,83.80
2019-05-30T06:19:07.150Z,83.40
2019-05-30T06:21:35.849Z,84.00
2019-05-30T06:24:04.766Z,84.00
2019-05-30T06:26:33.568Z,83.90
2019-05-30T06:29:02.371Z,83.40
2019-05-30T06:31:31.149Z,83.70
2019-05-30T06:33:59.873Z,83.30
2019-05-30T06:36:29.297Z,82.90
2019-05-30T06:38:58.127Z,82.70
2019-05-30T06:41:27.752Z,83.20
2019-05-30T06:43:56.650Z,83.40
2019-05-30T06:46:26.193Z,83.40
2019-05-30T06:48:55.221Z,83.90
2019-05-30T06:51:24.855Z,84.10
2019-05-30T06:53:53.753Z,84.50
2019-05-30T06:56:23.261Z,84.70
2019-05-30T06:58:52.067Z,84.60
2019-05-30T07:01:22.062Z,83.60
2019-05-30T07:03:51.296Z,84.20
2019-05-30T07:06:20.442Z,84.20
2019-05-30T07:08:49.471Z,83.40
2019-05-30T07:11:18.276Z,84.20
2019-05-30T07:13:47.048Z,84.30
2019-05-30T07:16:15.766Z,83.80
2019-05-30T07:18:44.537Z,83.90
2019-05-30T07:21:13.370Z,83.80
2019-05-30T07:23:42.127Z,84.40
2019-05-30T07:26:10.925Z,84.10
2019-05-30T07:28:39.804Z,84.20
2019-05-30T07:31:08.635Z,84.50
2019-05-30T07:33:37.369Z,83.90
2019-05-30T07:36:06.124Z,84.10
2019-05-30T07:38:34.895Z,84.00
2019-05-30T07:41:03.631Z,83.70
2019-05-30T07:43:33.481Z,83.90
2019-05-30T07:46:02.356Z,84.40
2019-05-30T07:48:32.309Z,84.90
2019-05-30T07:51:01.427Z,84.40
2019-05-30T07:53:30.691Z,84.10
2019-05-30T07:55:59.633Z,83.70
2019-05-30T07:58:29.028Z,83.40
2019-05-30T08:00:57.904Z,83.60
2019-05-30T08:03:28.188Z,83.20
2019-05-30T08:05:57.213Z,82.70
2019-05-30T08:08:26.036Z,82.10
2019-05-30T08:11:08.281Z,81.90
2019-05-30T08:13:25.169Z,81.90
2019-05-30T08:15:54.218Z,81.90
2019-05-30T08:18:23.027Z,82.90
2019-05-30T08:20:51.887Z,81.80
2019-05-30T08:23:24.499Z,81.40
2019-05-30T08:25:52.843Z,81.40
2019-05-30T08:28:21.655Z,81.90
2019-05-30T08:30:51.608Z,81.50
2019-05-30T08:33:21.636Z,80.80
2019-05-30T08:35:50.595Z,81.00
2019-05-30T08:38:19.345Z,81.10
2019-05-30T08:40:48.159Z,81.00
2019-05-30T08:43:16.927Z,81.90
2019-05-30T08:45:45.651Z,82.10
2019-05-30T08:48:14.416Z,82.30
2019-05-30T08:50:44.729Z,82.60
2019-05-30T08:53:13.477Z,82.40
2019-05-30T08:55:42.858Z,82.10
2019-05-30T08:58:11.622Z,82.30
2019-05-30T09:00:40.349Z,82.40
2019-05-30T09:03:09.237Z,82.30
2019-05-30T09:05:38.711Z,82.60
2019-05-30T09:08:08.413Z,82.20
2019-05-30T09:10:37.852Z,81.80
2019-05-30T09:13:07.526Z,81.40
2019-05-30T09:15:37.512Z,81.70
2019-05-30T09:18:07.086Z,81.00
2019-05-30T09:20:37.881Z,81.00
2019-05-30T09:23:07.083Z,79.70
2019-05-30T09:25:37.205Z,79.20
2019-05-30T09:28:07.039Z,77.60
2019-05-30T09:30:35.862Z,76.80
2019-05-30T09:33:04.647Z,75.30
2019-05-30T09:35:33.452Z,74.90
2019-05-30T09:38:02.236Z,74.40
2019-05-30T09:40:34.203Z,74.20
2019-05-30T09:43:02.939Z,73.50
2019-05-30T09:45:34.594Z,72.70
2019-05-30T09:48:03.350Z,72.10
2019-05-30T09:50:32.233Z,72.30
2019-05-30T09:53:00.989Z,73.00
2019-05-30T09:55:29.956Z,72.60
2019-05-30T09:57:58.846Z,72.10
2019-05-30T10:00:30.091Z,71.20
2019-05-30T10:02:58.906Z,71.00
2019-05-30T10:05:27.798Z,72.60
2019-05-30T10:07:56.535Z,72.40
2019-05-30T10:10:25.948Z,72.60
2019-05-30T10:12:54.731Z,73.40
2019-05-30T10:15:23.608Z,72.90
2019-05-30T10:17:54.492Z,72.20
2019-05-30T10:20:23.888Z,71.70
2019-05-30T10:22:53.855Z,70.80
2019-05-30T10:25:23.700Z,70.30
2019-05-30T10:27:54.885Z,69.20
2019-05-30T10:30:24.915Z,68.10
2019-05-30T10:32:55.729Z,68.10
2019-05-30T10:35:25.334Z,68.20
2019-05-30T10:37:54.313Z,67.80
2019-05-30T10:40:23.492Z,68.50
2019-05-30T10:42:53.229Z,69.30
2019-05-30T10:45:23.730Z,68.30
2019-05-30T10:52:19.706Z,66.40
2019-05-30T10:54:49.404Z,65.40
2019-05-30T10:57:18.379Z,65.40
2019-05-30T10:59:47.838Z,64.80
2019-05-30T11:02:17.747Z,66.40
2019-05-30T11:04:47.782Z,67.10
2019-05-30T11:07:25.805Z,67.40
2019-05-30T11:10:04.055Z,65.50
2019-05-30T11:12:32.803Z,65.80
2019-05-30T11:15:01.607Z,65.80
2019-05-30T11:17:30.379Z,65.40
2019-05-30T11:19:59.180Z,64.10
2019-05-30T11:22:27.983Z,64.60
2019-05-30T11:24:56.860Z,62.90
2019-05-30T11:27:25.574Z,63.40
2019-05-30T11:29:54.812Z,63.30
2019-05-30T11:32:23.599Z,62.10
2019-05-30T11:34:53.052Z,62.50
2019-05-30T11:37:22.044Z,62.70
2019-05-30T11:39:51.101Z,62.60
2019-05-30T11:42:19.991Z,63.70
2019-05-30T11:44:49.695Z,63.30
2019-05-30T11:47:18.407Z,62.70
2019-05-30T11:49:47.168Z,62.70
2019-05-30T11:52:16.053Z,62.50
2019-05-30T11:54:44.890Z,63.10
2019-05-30T11:57:13.660Z,63.30
2019-05-30T11:59:42.411Z,63.10
2019-05-30T12:02:11.227Z,63.10
2019-05-30T12:04:39.962Z,63.20
2019-05-30T12:07:08.703Z,63.40
2019-05-30T12:09:37.462Z,63.10
2019-05-30T12:12:06.218Z,63.30
2019-05-30T12:14:34.937Z,63.40
2019-05-30T12:17:03.624Z,63.50
2019-05-30T12:19:33.668Z,62.80
2019-05-30T12:22:02.396Z,62.50
2019-05-30T12:24:31.206Z,61.60
2019-05-30T12:27:00.165Z,61.50
2019-05-30T12:29:29.089Z,62.00
2019-05-30T12:32:00.217Z,62.10
2019-05-30T12:34:28.405Z,61.20
2019-05-30T12:36:58.475Z,60.00
2019-05-30T12:39:27.907Z,60.00
2019-05-30T12:41:56.857Z,60.40
2019-05-30T12:44:25.816Z,60.30
2019-05-30T12:46:57.037Z,60.80
2019-05-30T12:49:26.046Z,59.60
2019-05-30T12:51:54.811Z,60.60
2019-05-30T12:54:23.526Z,61.20
2019-05-30T12:56:54.586Z,61.20
2019-05-30T12:59:23.400Z,60.50
2019-05-30T13:01:52.157Z,59.50
2019-05-30T13:04:20.853Z,59.70
2019-05-30T13:06:49.569Z,59.60
2019-05-30T13:09:18.301Z,60.50
2019-05-30T13:11:47.108Z,60.20
2019-05-30T13:14:15.859Z,58.30
2019-05-30T13:16:44.605Z,58.00
2019-05-30T13:19:13.322Z,58.30
2019-05-30T13:21:42.122Z,58.60
2019-05-30T13:24:10.930Z,58.80
2019-05-30T13:26:39.638Z,58.60
2019-05-30T13:29:08.372Z,58.90
2019-05-30T13:31:37.381Z,58.40
2019-05-30T13:34:07.168Z,58.20
2019-05-30T13:36:35.934Z,58.90
2019-05-30T13:39:07.494Z,59.60
2019-05-30T13:41:36.461Z,59.40
2019-05-30T13:44:08.017Z,58.00
2019-05-30T13:46:35.661Z,56.80
2019-05-30T13:49:04.854Z,57.30
2019-05-30T13:51:33.526Z,57.60
2019-05-30T13:54:03.077Z,57.40
2019-05-30T13:56:31.800Z,57.10
2019-05-30T13:59:01.724Z,57.10
2019-05-30T14:01:30.922Z,57.70
2019-05-30T14:04:00.036Z,57.60
2019-05-30T14:06:28.849Z,56.40
2019-05-30T14:08:57.501Z,55.60
2019-05-30T14:11:26.222Z,54.10
2019-05-30T14:13:54.956Z,54.80
2019-05-30T14:16:23.674Z,54.70
2019-05-30T14:18:52.425Z,55.00
2019-05-30T14:21:21.194Z,55.00
2019-05-30T14:23:49.878Z,55.50
2019-05-30T14:26:18.633Z,55.20
2019-05-30T14:28:47.365Z,55.10
2019-05-30T14:31:16.109Z,55.10
2019-05-30T14:33:44.833Z,55.50
2019-05-30T14:36:14.762Z,53.80
2019-05-30T14:38:57.099Z,54.20
2019-05-30T14:41:13.970Z,55.10
2019-05-30T14:43:44.691Z,54.70
2019-05-30T14:46:13.465Z,54.40
2019-05-30T14:48:42.192Z,54.10
2019-05-30T14:51:11.126Z,55.10
2019-05-30T14:53:39.891Z,55.10
2019-05-30T14:56:09.150Z,55.00
2019-05-30T14:58:38.037Z,55.00
2019-05-30T15:01:07.148Z,54.80
2019-05-30T15:03:36.029Z,53.90
2019-05-30T15:06:06.866Z,53.90
2019-05-30T15:08:35.345Z,54.50
2019-05-30T15:11:05.353Z,55.80
2019-05-30T15:13:34.153Z,55.20
2019-05-30T15:16:02.818Z,55.20
2019-05-30T15:18:31.561Z,55.40
2019-05-30T15:21:00.303Z,55.00
2019-05-30T15:23:29.018Z,54.80
2019-05-30T15:25:57.744Z,54.60
2019-05-30T15:28:26.413Z,55.10
2019-05-30T15:30:55.130Z,55.10
2019-05-30T15:33:24.021Z,54.00
2019-05-30T15:35:52.725Z,54.30
2019-05-30T15:38:21.441Z,54.60
2019-05-30T15:40:50.171Z,54.90
2019-05-30T15:43:18.906Z,55.50
2019-05-30T15:45:47.632Z,55.70
2019-05-30T15:48:16.437Z,54.90
2019-05-30T15:50:45.307Z,54.70
2019-05-30T15:53:15.116Z,54.30
2019-05-30T15:55:44.037Z,54.70
2019-05-30T15:58:13.536Z,54.60
2019-05-30T16:00:42.604Z,55.20
2019-05-30T16:03:14.688Z,54.80
2019-05-30T16:05:43.734Z,54.60
2019-05-30T16:08:12.660Z,54.70
2019-05-30T16:10:41.917Z,55.40
2019-05-30T16:13:11.484Z,55.40
2019-05-30T16:15:44.044Z,55.60
2019-05-30T16:18:11.602Z,56.10
2019-05-30T16:20:40.490Z,56.20
2019-05-30T16:23:09.232Z,56.10
2019-05-30T16:25:37.993Z,56.10
2019-05-30T16:28:08.288Z,56.30
2019-05-30T16:30:37.073Z,56.30
2019-05-30T16:33:05.814Z,56.90
2019-05-30T16:35:34.639Z,57.20
2019-05-30T16:38:03.421Z,56.60
2019-05-30T16:40:32.259Z,55.00
2019-05-30T16:43:00.913Z,53.40
2019-05-30T16:45:29.717Z,51.70
2019-05-30T16:47:58.678Z,50.50
2019-05-30T16:50:27.437Z,50.40
2019-05-30T16:52:56.223Z,50.60
2019-05-30T16:55:25.121Z,51.30
2019-05-30T16:57:53.833Z,52.30
2019-05-30T17:00:22.727Z,53.30
2019-05-30T17:02:51.516Z,53.70
2019-05-30T17:05:20.427Z,53.00
2019-05-30T17:07:49.180Z,53.70
2019-05-30T17:10:26.414Z,54.30
2019-05-30T17:12:48.974Z,54.90
2019-05-30T17:15:17.929Z,55.30
2019-05-30T17:17:46.575Z,54.80
2019-05-30T17:20:18.351Z,54.50
2019-05-30T17:22:47.505Z,53.80
2019-05-30T17:25:17.121Z,53.10
2019-05-30T17:27:46.101Z,52.00
2019-05-30T17:30:15.898Z,51.50
2019-05-30T17:32:44.791Z,51.80
2019-05-30T17:35:13.585Z,51.70
2019-05-30T17:37:42.444Z,52.20
2019-05-30T17:40:11.504Z,51.60
2019-05-30T17:42:40.295Z,52.20
2019-05-30T17:45:10.509Z,52.90
2019-05-30T17:47:39.304Z,53.30
2019-05-30T17:50:09.607Z,53.30
2019-05-30T17:52:38.322Z,52.90
2019-05-30T17:55:08.221Z,52.60
2019-05-30T17:57:36.988Z,52.30
2019-05-30T18:00:10.944Z,52.60
2019-05-30T18:02:40.437Z,52.70
2019-05-30T18:05:10.165Z,52.90
2019-05-30T18:07:38.985Z,51.80
2019-05-30T18:10:08.326Z,51.80
2019-05-30T18:12:37.117Z,51.80
2019-05-30T18:15:09.213Z,52.30
2019-05-30T18:17:37.983Z,53.10
2019-05-30T18:20:08.975Z,53.70
2019-05-30T18:22:37.844Z,53.20
2019-05-30T18:25:08.908Z,53.50
2019-05-30T18:27:37.740Z,53.20
2019-05-30T18:30:09.959Z,53.40
2019-05-30T18:32:38.668Z,53.80
2019-05-30T18:35:08.475Z,54.20
2019-05-30T18:37:38.351Z,54.50
2019-05-30T18:40:08.829Z,54.50
2019-05-30T18:42:37.755Z,54.60
2019-05-30T18:45:13.636Z,54.50
2019-05-30T18:47:42.365Z,54.40
2019-05-30T18:50:11.396Z,54.80
2019-05-30T18:52:40.122Z,55.10
2019-05-30T18:55:09.306Z,56.10
2019-05-30T18:57:38.235Z,55.20
2019-05-30T19:00:12.320Z,55.30
2019-05-30T19:02:40.816Z,55.10
2019-05-30T19:05:10.690Z,55.40
2019-05-30T19:07:39.663Z,55.30
2019-05-30T19:10:09.051Z,55.30
2019-05-30T19:12:37.962Z,55.40
2019-05-30T19:15:08.369Z,55.40
2019-05-30T19:17:37.100Z,55.30
2019-05-30T19:20:07.579Z,56.00
2019-05-30T19:22:36.522Z,56.10
2019-05-30T19:25:06.730Z,55.70
2019-05-30T19:27:37.999Z,55.80
2019-05-30T19:30:11.392Z,55.40
2019-05-30T19:32:40.102Z,55.70
2019-05-30T19:35:09.520Z,55.80
2019-05-30T19:37:38.230Z,55.80
2019-05-30T19:40:08.110Z,55.90
2019-05-30T19:42:37.847Z,56.30
2019-05-30T19:45:09.720Z,56.20
2019-05-30T19:47:38.900Z,56.30
2019-05-30T19:50:08.641Z,56.50
2019-05-30T19:52:38.910Z,56.80
2019-05-30T19:55:09.203Z,56.30
2019-05-30T19:57:38.003Z,56.20
2019-05-30T20:00:09.398Z,56.90
2019-05-30T20:02:38.413Z,56.70
2019-05-30T20:05:08.874Z,56.60
2019-05-30T20:07:38.737Z,56.90
2019-05-30T20:10:08.475Z,56.90
2019-05-30T20:12:37.295Z,56.70
2019-05-30T20:15:10.365Z,57.40
2019-05-30T20:17:39.795Z,56.60
2019-05-30T20:20:09.620Z,56.50
2019-05-30T20:22:38.377Z,56.80
2019-05-30T20:25:08.440Z,57.00
2019-05-30T20:27:37.282Z,57.00
2019-05-30T20:30:08.117Z,57.40
2019-05-30T20:32:37.104Z,57.50
2019-05-30T20:35:07.497Z,57.40
2019-05-30T20:37:36.867Z,57.10
2019-05-30T20:40:11.765Z,57.10
2019-05-30T20:42:41.089Z,57.20
2019-05-30T20:45:12.229Z,57.10
2019-05-30T20:47:44.092Z,57.30
2019-05-30T20:50:14.861Z,57.50
2019-05-30T20:52:45.718Z,57.30
2019-05-30T20:55:15.741Z,57.90
2019-05-30T20:57:44.539Z,57.90
2019-05-30T21:00:18.208Z,57.80
2019-05-30T21:02:47.364Z,57.50
2019-05-30T21:05:18.148Z,57.20
2019-05-30T21:07:48.516Z,57.50
2019-05-30T21:10:18.381Z,57.60
2019-05-30T21:12:49.374Z,57.50
2019-05-30T21:15:18.583Z,58.30
2019-05-30T21:17:47.357Z,58.40
2019-05-30T21:20:16.629Z,57.50
2019-05-30T21:22:46.473Z,57.80
2019-05-30T21:25:15.987Z,58.20
2019-05-30T21:27:45.229Z,57.80
2019-05-30T21:30:14.660Z,57.70
2019-05-30T21:32:44.891Z,57.60
2019-05-30T21:35:14.835Z,57.90
2019-05-30T21:37:43.885Z,58.00
2019-05-30T21:40:12.695Z,58.00
2019-05-30T21:42:57.811Z,57.90
2019-05-30T21:45:12.782Z,57.80
2019-05-30T21:47:42.724Z,57.80
2019-05-30T21:50:12.093Z,57.60
2019-05-30T21:52:41.528Z,57.50
2019-05-30T21:55:10.700Z,57.90
2019-05-30T21:57:39.837Z,58.00
2019-05-30T22:00:14.223Z,58.10
2019-05-30T22:02:48.597Z,58.40
2019-05-30T22:05:17.519Z,58.40
2019-05-30T22:07:47.261Z,58.40
2019-05-30T22:10:16.219Z,58.60
2019-05-30T22:12:45.545Z,58.20
2019-05-30T22:15:15.004Z,58.30
2019-05-30T22:17:43.831Z,58.50
2019-05-30T22:20:13.666Z,58.70
2019-05-30T22:22:42.387Z,58.90
2019-05-30T22:25:11.107Z,59.10
2019-05-30T22:27:39.756Z,59.40
2019-05-30T22:30:08.939Z,59.40
2019-05-30T22:32:37.840Z,59.50
2019-05-30T22:35:07.169Z,59.50
2019-05-30T22:37:36.128Z,59.60
2019-05-30T22:40:08.142Z,59.70
2019-05-30T22:42:36.854Z,59.80
2019-05-30T22:45:07.116Z,60.10
2019-05-30T22:47:35.924Z,60.30
2019-05-30T22:50:07.069Z,60.70
2019-05-30T22:52:35.795Z,60.60
2019-05-30T22:55:06.296Z,61.00
2019-05-30T22:57:35.168Z,61.40
2019-05-30T23:00:08.121Z,61.40
2019-05-30T23:02:36.811Z,61.40
2019-05-30T23:05:06.680Z,61.50
2019-05-30T23:07:35.418Z,61.90
2019-05-30T23:10:05.917Z,62.00
2019-05-30T23:12:34.632Z,61.90
2019-05-30T23:15:06.892Z,62.60
2019-05-30T23:17:35.630Z,62.20
2019-05-30T23:20:07.454Z,62.20
2019-05-30T23:22:36.523Z,62.20
2019-05-30T23:25:07.388Z,62.70
2019-05-30T23:27:36.113Z,62.70
2019-05-30T23:30:06.677Z,62.60
2019-05-30T23:32:35.634Z,62.80
2019-05-30T23:35:04.986Z,62.90
2019-05-30T23:37:33.855Z,62.80
2019-05-30T23:40:02.521Z,62.90
2019-05-30T23:42:31.253Z,63.30
2019-05-30T23:44:59.962Z,63.40
2019-05-30T23:47:28.787Z,62.80
2019-05-30T23:49:58.164Z,63.00
2019-05-30T23:52:27.183Z,63.10
2019-05-30T23:54:56.262Z,62.80
2019-05-30T23:57:25.176Z,62.70
2019-05-30T23:59:54.790Z,62.30
